createdAt,value
2022-07-26T00:02:04.641Z,29.10
2022-07-26T00:04:32.709Z,29.10
2022-07-26T00:07:00.976Z,29.10
2022-07-26T00:09:28.811Z,29.10
2022-07-26T00:11:56.751Z,29.10
2022-07-26T00:14:25.203Z,29.10
2022-07-26T00:16:54.434Z,29.10
2022-07-26T00:19:22.384Z,29.10
2022-07-26T00:22:10.906Z,29.10
2022-07-26T00:24:39.454Z,29.10
2022-07-26T00:27:07.513Z,29.10
2022-07-26T00:29:35.853Z,29.10
2022-07-26T00:32:05.597Z,29.10
2022-07-26T00:34:33.385Z,29.10
2022-07-26T00:37:01.354Z,29.10
2022-07-26T00:39:29.469Z,29.10
2022-07-26T00:41:57.268Z,29.20
2022-07-26T00:44:25.110Z,29.10
2022-07-26T00:46:53.071Z,29.10
2022-07-26T00:49:22.302Z,29.10
2022-07-26T00:51:50.204Z,29.10
2022-07-26T00:54:18.404Z,29.10
2022-07-26T00:56:47.747Z,29.10
2022-07-26T00:59:17.788Z,29.10
2022-07-26T01:01:45.635Z,29.10
2022-07-26T01:04:13.546Z,29.20
2022-07-26T01:06:43.247Z,29.10
2022-07-26T01:09:12.450Z,29.10
2022-07-26T01:11:40.279Z,29.10
2022-07-26T01:14:08.419Z,29.10
2022-07-26T01:16:36.498Z,29.10
2022-07-26T01:19:05.358Z,29.10
2022-07-26T01:21:34.920Z,29.10
2022-07-26T01:24:03.074Z,29.10
2022-07-26T01:26:30.902Z,29.10
2022-07-26T01:28:58.802Z,29.10
2022-07-26T01:31:27.050Z,29.10
2022-07-26T01:33:54.909Z,29.10
2022-07-26T01:36:22.944Z,29.10
2022-07-26T01:38:52.211Z,29.10
2022-07-26T01:41:30.710Z,29.10
2022-07-26T01:44:06.703Z,29.10
2022-07-26T01:46:34.835Z,29.10
2022-07-26T01:49:03.300Z,29.10
2022-07-26T01:51:31.510Z,29.20
2022-07-26T01:54:00.907Z,29.10
2022-07-26T01:56:28.731Z,29.10
2022-07-26T01:58:56.540Z,29.20
2022-07-26T02:01:38.448Z,29.10
2022-07-26T02:04:07.969Z,29.10
2022-07-26T02:06:36.025Z,29.10
2022-07-26T02:09:06.576Z,29.10
2022-07-26T02:11:35.571Z,29.10
2022-07-26T02:14:04.526Z,29.10
2022-07-26T02:16:32.694Z,29.10
2022-07-26T02:19:00.516Z,29.10
2022-07-26T02:21:28.326Z,29.10
2022-07-26T02:23:56.146Z,29.10
2022-07-26T02:26:25.310Z,29.10
2022-07-26T02:28:53.108Z,29.10
2022-07-26T02:31:21.010Z,29.10
2022-07-26T02:33:48.854Z,29.10
2022-07-26T02:36:16.682Z,29.10
2022-07-26T02:38:44.478Z,29.10
2022-07-26T02:41:12.271Z,29.10
2022-07-26T02:43:41.417Z,29.00
2022-07-26T02:46:09.245Z,29.00
2022-07-26T02:48:37.140Z,29.00
2022-07-26T02:51:05.412Z,29.00
2022-07-26T02:53:33.215Z,29.00
2022-07-26T02:56:01.020Z,29.00
2022-07-26T02:58:28.866Z,29.00
2022-07-26T03:00:58.243Z,29.00
2022-07-26T03:03:26.349Z,29.00
2022-07-26T03:05:54.141Z,29.00
2022-07-26T03:08:22.586Z,29.00
2022-07-26T03:10:50.414Z,29.00
2022-07-26T03:13:18.226Z,29.00
2022-07-26T03:15:46.073Z,29.00
2022-07-26T03:18:15.240Z,29.00
2022-07-26T03:20:43.029Z,29.00
2022-07-26T03:23:10.833Z,29.00
2022-07-26T03:25:39.643Z,29.00
2022-07-26T03:28:07.463Z,28.90
2022-07-26T03:30:35.443Z,28.90
2022-07-26T03:33:03.280Z,28.90
2022-07-26T03:35:36.731Z,29.00
2022-07-26T03:38:04.817Z,28.90
2022-07-26T03:40:32.635Z,29.00
2022-07-26T03:43:00.441Z,28.90
2022-07-26T03:45:29.232Z,29.00
2022-07-26T03:47:57.043Z,29.00
2022-07-26T03:50:24.859Z,29.00
2022-07-26T03:52:54.062Z,29.00
2022-07-26T03:55:39.674Z,29.00
2022-07-26T03:58:07.480Z,29.00
2022-07-26T04:00:35.400Z,29.00
2022-07-26T04:03:03.255Z,29.00
2022-07-26T04:05:31.112Z,29.00
2022-07-26T04:08:00.519Z,29.00
2022-07-26T04:10:28.376Z,29.00
2022-07-26T04:12:56.196Z,29.00
2022-07-26T04:15:24.199Z,29.00
2022-07-26T04:17:52.010Z,29.00
2022-07-26T04:20:19.861Z,29.00
2022-07-26T04:22:47.837Z,29.00
2022-07-26T04:25:17.120Z,29.00
2022-07-26T04:27:44.958Z,28.90
2022-07-26T04:30:15.335Z,28.90
2022-07-26T04:32:44.270Z,28.80
2022-07-26T04:35:15.747Z,28.60
2022-07-26T04:37:44.685Z,28.30
2022-07-26T04:40:21.506Z,27.90
2022-07-26T04:42:53.377Z,27.70
2022-07-26T04:45:21.506Z,27.50
2022-07-26T04:47:50.808Z,27.20
2022-07-26T04:50:19.760Z,26.90
2022-07-26T04:52:48.003Z,26.70
2022-07-26T04:55:16.212Z,26.60
2022-07-26T04:57:44.597Z,26.60
2022-07-26T05:00:23.421Z,26.60
2022-07-26T05:02:53.610Z,26.70
2022-07-26T05:05:22.376Z,26.70
2022-07-26T05:07:53.452Z,26.70
2022-07-26T05:10:23.438Z,26.70
2022-07-26T05:12:51.239Z,26.70
2022-07-26T05:15:20.602Z,26.70
2022-07-26T05:17:48.665Z,26.70
2022-07-26T05:20:17.912Z,26.70
2022-07-26T05:22:46.071Z,26.60
2022-07-26T05:25:13.987Z,26.60
2022-07-26T05:27:42.003Z,26.60
2022-07-26T05:30:11.507Z,26.50
2022-07-26T05:32:40.677Z,26.50
2022-07-26T05:35:09.326Z,26.40
2022-07-26T05:37:37.788Z,26.20
2022-07-26T05:40:07.315Z,26.10
2022-07-26T05:42:35.139Z,26.00
2022-07-26T05:45:02.995Z,25.90
2022-07-26T05:47:30.887Z,25.90
2022-07-26T05:50:00.182Z,25.90
2022-07-26T05:52:28.042Z,25.80
2022-07-26T05:54:55.857Z,25.80
2022-07-26T05:57:23.726Z,25.70
2022-07-26T05:59:51.753Z,25.70
2022-07-26T06:02:19.669Z,25.70
2022-07-26T06:04:47.807Z,25.70
2022-07-26T06:07:17.175Z,25.70
2022-07-26T06:09:45.194Z,25.70
2022-07-26T06:12:13.034Z,25.60
2022-07-26T06:14:40.885Z,25.60
2022-07-26T06:17:08.835Z,25.50
2022-07-26T06:19:36.931Z,25.50
2022-07-26T06:22:05.189Z,25.50
2022-07-26T06:24:34.439Z,25.50
2022-07-26T06:27:05.020Z,25.40
2022-07-26T06:29:34.062Z,25.40
2022-07-26T06:32:01.985Z,25.40
2022-07-26T06:34:30.118Z,25.40
2022-07-26T06:36:57.935Z,25.50
2022-07-26T06:39:26.039Z,25.50
2022-07-26T06:41:55.194Z,25.50
2022-07-26T06:44:23.790Z,25.50
2022-07-26T06:46:51.631Z,25.50
2022-07-26T06:49:22.758Z,25.50
2022-07-26T06:51:51.045Z,25.50
2022-07-26T06:54:18.918Z,25.50
2022-07-26T06:56:46.678Z,25.50
2022-07-26T06:59:15.846Z,25.50
2022-07-26T07:01:55.461Z,25.50
2022-07-26T07:04:28.950Z,25.50
2022-07-26T07:06:57.423Z,25.40
2022-07-26T07:09:25.657Z,25.40
2022-07-26T07:11:58.621Z,25.40
2022-07-26T07:14:29.665Z,25.50
2022-07-26T07:16:57.898Z,25.50
2022-07-26T07:19:26.523Z,25.50
2022-07-26T07:21:54.375Z,25.50
2022-07-26T07:24:23.391Z,25.50
2022-07-26T07:26:51.210Z,25.50
2022-07-26T07:29:20.221Z,25.60
2022-07-26T07:31:50.968Z,25.60
2022-07-26T07:34:22.588Z,25.60
2022-07-26T07:36:52.161Z,25.60
2022-07-26T07:39:20.751Z,25.60
2022-07-26T07:41:49.622Z,25.60
2022-07-26T07:44:17.644Z,25.60
2022-07-26T07:46:45.522Z,25.60
2022-07-26T07:49:15.683Z,25.70
2022-07-26T07:51:43.659Z,25.70
2022-07-26T07:54:15.826Z,25.70
2022-07-26T07:56:44.313Z,25.80
2022-07-26T07:59:12.990Z,25.80
2022-07-26T08:01:40.977Z,25.90
2022-07-26T08:04:09.615Z,26.00
2022-07-26T08:06:40.913Z,26.00
2022-07-26T08:09:09.969Z,26.10
2022-07-26T08:11:41.731Z,26.10
2022-07-26T08:14:09.803Z,26.10
2022-07-26T08:16:37.648Z,26.20
2022-07-26T08:19:05.748Z,26.20
2022-07-26T08:21:34.006Z,26.20
2022-07-26T08:24:03.470Z,26.20
2022-07-26T08:26:31.440Z,26.30
2022-07-26T08:29:09.248Z,26.20
2022-07-26T08:31:37.342Z,26.30
2022-07-26T08:34:05.288Z,26.30
2022-07-26T08:36:33.333Z,26.30
2022-07-26T08:39:02.764Z,26.30
2022-07-26T08:41:31.995Z,26.20
2022-07-26T08:44:06.487Z,26.30
2022-07-26T08:46:37.260Z,26.30
2022-07-26T08:49:06.136Z,26.30
2022-07-26T08:51:35.319Z,26.30
2022-07-26T08:54:06.128Z,26.30
2022-07-26T08:56:35.661Z,26.30
2022-07-26T08:59:18.832Z,26.40
2022-07-26T09:01:55.534Z,26.40
2022-07-26T09:04:34.034Z,26.40
2022-07-26T09:07:06.765Z,26.40
2022-07-26T09:09:38.504Z,26.40
2022-07-26T09:12:17.968Z,26.40
2022-07-26T09:14:47.549Z,26.40
2022-07-26T09:17:17.105Z,26.40
2022-07-26T09:19:45.288Z,26.40
2022-07-26T09:22:15.073Z,26.40
2022-07-26T09:24:45.859Z,26.40
2022-07-26T09:27:15.675Z,26.40
2022-07-26T09:29:45.284Z,26.40
2022-07-26T09:32:17.854Z,26.40
2022-07-26T09:34:52.685Z,26.40
2022-07-26T09:37:34.689Z,26.40
2022-07-26T09:40:07.092Z,26.40
2022-07-26T09:42:35.686Z,26.40
2022-07-26T09:45:04.639Z,26.40
2022-07-26T09:47:39.871Z,26.40
2022-07-26T09:50:17.213Z,26.40
2022-07-26T09:53:07.720Z,26.40
2022-07-26T09:55:54.513Z,26.40
2022-07-26T09:58:23.469Z,26.50
2022-07-26T10:00:51.858Z,26.50
2022-07-26T10:03:19.749Z,26.50
2022-07-26T10:05:47.778Z,26.50
2022-07-26T10:08:15.824Z,26.50
2022-07-26T10:10:50.593Z,26.60
2022-07-26T10:13:18.960Z,26.60
2022-07-26T10:15:48.517Z,26.70
2022-07-26T10:18:44.710Z,26.80
2022-07-26T10:21:23.550Z,26.90
2022-07-26T10:23:53.346Z,27.00
2022-07-26T10:26:40.535Z,27.00
2022-07-26T10:29:26.491Z,27.10
2022-07-26T10:32:14.401Z,27.10
2022-07-26T10:34:43.313Z,27.10
2022-07-26T10:37:20.826Z,27.10
2022-07-26T10:39:48.662Z,27.00
2022-07-26T10:42:17.827Z,27.00
2022-07-26T10:44:45.819Z,27.00
2022-07-26T10:47:19.530Z,27.00
2022-07-26T10:49:58.661Z,27.00
2022-07-26T10:52:28.931Z,26.80
2022-07-26T10:55:07.513Z,26.70
2022-07-26T10:57:37.937Z,26.70
2022-07-26T11:00:11.396Z,26.60
2022-07-26T11:02:39.879Z,26.60
2022-07-26T11:05:14.054Z,26.50
2022-07-26T11:08:01.467Z,26.50
2022-07-26T11:10:31.797Z,26.50
2022-07-26T11:13:03.115Z,26.50
2022-07-26T11:15:31.577Z,26.50
2022-07-26T11:18:16.777Z,26.50
2022-07-26T11:20:46.502Z,26.50
2022-07-26T11:23:25.452Z,26.50
2022-07-26T11:26:11.321Z,26.40
2022-07-26T11:28:49.221Z,26.40
2022-07-26T11:31:19.283Z,26.40
2022-07-26T11:33:50.905Z,26.50
2022-07-26T11:36:19.941Z,26.50
2022-07-26T11:38:49.876Z,26.50
2022-07-26T11:41:20.802Z,26.50
2022-07-26T11:44:05.594Z,26.50
2022-07-26T11:46:39.470Z,26.60
2022-07-26T11:49:15.650Z,26.60
2022-07-26T11:51:51.320Z,26.60
2022-07-26T11:54:19.449Z,26.60
2022-07-26T11:56:57.655Z,26.60
2022-07-26T11:59:29.504Z,26.60
2022-07-26T12:01:58.153Z,26.70
2022-07-26T12:04:27.948Z,26.70
2022-07-26T12:06:57.133Z,26.80
2022-07-26T12:09:33.046Z,26.80
2022-07-26T12:12:02.150Z,26.90
2022-07-26T12:14:33.040Z,26.90
2022-07-26T12:17:12.062Z,27.00
2022-07-26T12:19:40.383Z,27.00
2022-07-26T12:22:12.257Z,27.00
2022-07-26T12:24:43.919Z,27.00
2022-07-26T12:27:14.483Z,27.00
2022-07-26T12:29:45.141Z,27.10
2022-07-26T12:32:15.084Z,27.00
2022-07-26T12:34:57.071Z,27.10
2022-07-26T12:37:37.680Z,27.10
2022-07-26T12:40:11.388Z,27.10
2022-07-26T12:42:43.093Z,27.00
2022-07-26T12:45:13.835Z,27.00
2022-07-26T12:47:43.951Z,27.10
2022-07-26T12:50:12.982Z,27.00
2022-07-26T12:52:42.007Z,27.00
2022-07-26T12:55:14.700Z,27.00
2022-07-26T12:57:47.294Z,27.00
2022-07-26T13:00:18.577Z,27.00
2022-07-26T13:02:47.013Z,27.10
2022-07-26T13:05:15.680Z,27.10
2022-07-26T13:07:43.656Z,27.20
2022-07-26T13:13:00.309Z,27.40
2022-07-26T13:15:36.229Z,27.40
2022-07-26T13:18:07.232Z,27.50
2022-07-26T13:20:35.573Z,27.60
2022-07-26T13:23:03.882Z,27.60
2022-07-26T13:25:39.666Z,27.70
2022-07-26T13:28:08.575Z,27.70
2022-07-26T13:30:42.924Z,27.80
2022-07-26T13:33:11.921Z,27.80
2022-07-26T13:35:42.230Z,27.80
2022-07-26T13:38:10.519Z,27.90
2022-07-26T13:40:38.388Z,27.90
2022-07-26T13:43:06.347Z,27.90
2022-07-26T13:45:34.418Z,27.90
2022-07-26T13:48:03.882Z,27.90
2022-07-26T13:50:31.767Z,27.90
2022-07-26T13:52:59.666Z,28.00
2022-07-26T13:55:27.480Z,28.00
2022-07-26T13:57:57.555Z,28.00
2022-07-26T14:00:27.070Z,28.00
2022-07-26T14:02:55.433Z,28.00
2022-07-26T14:05:25.296Z,28.00
2022-07-26T14:07:53.696Z,28.10
2022-07-26T14:10:22.756Z,28.10
2022-07-26T14:12:51.857Z,28.10
2022-07-26T14:15:22.514Z,28.10
2022-07-26T14:17:50.986Z,28.10
2022-07-26T14:20:19.099Z,28.10
2022-07-26T14:22:49.310Z,28.10
2022-07-26T14:25:17.121Z,28.10
2022-07-26T14:27:44.884Z,28.10
2022-07-26T14:30:14.073Z,28.20
2022-07-26T14:32:41.997Z,28.20
2022-07-26T14:35:10.602Z,28.20
2022-07-26T14:37:42.634Z,28.20
2022-07-26T14:40:16.213Z,28.20
2022-07-26T14:42:45.166Z,28.20
2022-07-26T14:45:14.197Z,28.20
2022-07-26T14:47:42.488Z,28.20
2022-07-26T14:50:11.713Z,28.20
2022-07-26T14:52:40.810Z,28.20
2022-07-26T14:55:09.621Z,28.20
2022-07-26T14:57:40.445Z,28.20
2022-07-26T15:00:11.505Z,28.20
2022-07-26T15:02:40.608Z,28.20
2022-07-26T15:05:09.242Z,28.20
2022-07-26T15:07:37.296Z,28.30
2022-07-26T15:10:06.144Z,28.20
2022-07-26T15:12:34.106Z,28.20
2022-07-26T15:15:03.265Z,28.20
2022-07-26T15:17:31.202Z,28.20
2022-07-26T15:19:58.983Z,28.20
2022-07-26T15:22:26.857Z,28.20
2022-07-26T15:24:54.741Z,28.20
2022-07-26T15:27:22.535Z,28.20
2022-07-26T15:29:50.804Z,28.20
2022-07-26T15:32:21.116Z,28.20
2022-07-26T15:34:49.133Z,28.20
2022-07-26T15:37:17.489Z,28.10
2022-07-26T15:39:45.518Z,28.10
2022-07-26T15:42:15.311Z,28.20
2022-07-26T15:44:43.300Z,28.20
2022-07-26T15:47:12.072Z,28.20
2022-07-26T15:49:41.246Z,28.20
2022-07-26T15:52:11.488Z,28.20
2022-07-26T15:54:41.501Z,28.20
2022-07-26T15:57:09.482Z,28.20
2022-07-26T15:59:37.320Z,28.20
2022-07-26T16:02:05.771Z,28.30
2022-07-26T16:04:33.619Z,28.30
2022-07-26T16:07:02.985Z,28.30
2022-07-26T16:09:30.883Z,28.30
2022-07-26T16:12:01.566Z,28.30
2022-07-26T16:14:33.447Z,28.30
2022-07-26T16:17:01.870Z,28.30
2022-07-26T16:19:29.686Z,28.30
2022-07-26T16:21:57.499Z,28.30
2022-07-26T16:24:26.723Z,28.30
2022-07-26T16:26:54.538Z,28.30
2022-07-26T16:29:22.518Z,28.40
2022-07-26T16:31:50.562Z,28.40
2022-07-26T16:34:18.368Z,28.40
2022-07-26T16:36:46.172Z,28.40
2022-07-26T16:39:14.756Z,28.40
2022-07-26T16:41:44.458Z,28.40
2022-07-26T16:44:12.303Z,28.40
2022-07-26T16:46:40.201Z,28.40
2022-07-26T16:49:08.459Z,28.40
2022-07-26T16:51:36.522Z,28.40
2022-07-26T16:54:04.585Z,28.40
2022-07-26T16:56:32.411Z,28.40
2022-07-26T16:59:01.557Z,28.40
2022-07-26T17:01:29.421Z,28.40
2022-07-26T17:03:57.253Z,28.40
2022-07-26T17:06:25.342Z,28.40
2022-07-26T17:08:53.155Z,28.40
2022-07-26T17:11:20.984Z,28.30
2022-07-26T17:13:48.795Z,28.30
2022-07-26T17:16:24.325Z,28.30
2022-07-26T17:18:52.878Z,28.30
2022-07-26T17:21:20.890Z,28.30
2022-07-26T17:23:48.915Z,28.30
2022-07-26T17:26:17.391Z,28.30
2022-07-26T17:28:45.477Z,28.30
2022-07-26T17:31:13.474Z,28.30
2022-07-26T17:33:42.660Z,28.30
2022-07-26T17:36:21.339Z,28.20
2022-07-26T17:38:49.239Z,28.20
2022-07-26T17:41:18.367Z,28.20
2022-07-26T17:43:47.573Z,28.20
2022-07-26T17:46:15.907Z,28.20
2022-07-26T17:48:47.049Z,28.20
2022-07-26T17:51:15.617Z,28.30
2022-07-26T17:53:43.664Z,28.30
2022-07-26T17:56:12.468Z,28.30
2022-07-26T17:58:40.993Z,28.30
2022-07-26T18:01:09.505Z,28.30
2022-07-26T18:03:37.352Z,28.40
2022-07-26T18:06:07.225Z,28.40
2022-07-26T18:08:35.128Z,28.40
2022-07-26T18:11:04.790Z,28.40
2022-07-26T18:13:32.714Z,28.50
2022-07-26T18:16:05.468Z,28.50
2022-07-26T18:18:33.894Z,28.50
2022-07-26T18:21:01.719Z,28.50
2022-07-26T18:23:30.900Z,28.50
2022-07-26T18:25:59.128Z,28.50
2022-07-26T18:28:26.970Z,28.50
2022-07-26T18:30:54.837Z,28.50
2022-07-26T18:33:22.894Z,28.50
2022-07-26T18:35:50.735Z,28.50
2022-07-26T18:38:18.545Z,28.40
2022-07-26T18:40:47.668Z,28.40
2022-07-26T18:43:15.484Z,28.40
2022-07-26T18:45:43.295Z,28.40
2022-07-26T18:48:11.169Z,28.40
2022-07-26T18:50:39.849Z,28.40
2022-07-26T18:53:08.137Z,28.40
2022-07-26T18:55:36.046Z,28.40
2022-07-26T18:58:07.660Z,28.40
2022-07-26T19:00:36.422Z,28.40
2022-07-26T19:03:04.743Z,28.40
2022-07-26T19:05:34.538Z,28.40
2022-07-26T19:08:03.484Z,28.40
2022-07-26T19:10:31.310Z,28.40
2022-07-26T19:12:59.163Z,28.40
2022-07-26T19:15:29.695Z,28.40
2022-07-26T19:17:57.716Z,28.40
2022-07-26T19:20:25.579Z,28.40
2022-07-26T19:22:53.430Z,28.40
2022-07-26T19:25:21.319Z,28.40
2022-07-26T19:27:50.125Z,28.40
2022-07-26T19:30:17.931Z,28.30
2022-07-26T19:32:47.070Z,28.30
2022-07-26T19:35:14.887Z,28.20
2022-07-26T19:37:44.961Z,28.20
2022-07-26T19:40:13.814Z,28.10
2022-07-26T19:42:42.369Z,28.10
2022-07-26T19:45:10.708Z,28.10
2022-07-26T19:47:39.089Z,28.10
2022-07-26T19:50:10.039Z,28.10
2022-07-26T19:52:37.912Z,28.10
2022-07-26T19:55:06.663Z,28.10
2022-07-26T19:57:34.513Z,28.10
2022-07-26T20:00:03.573Z,28.10
2022-07-26T20:02:40.976Z,28.10
2022-07-26T20:05:11.761Z,28.00
2022-07-26T20:07:39.829Z,28.00
2022-07-26T20:10:09.153Z,28.00
2022-07-26T20:12:38.668Z,28.00
2022-07-26T20:15:08.071Z,28.00
2022-07-26T20:17:38.985Z,28.00
2022-07-26T20:20:08.359Z,28.00
2022-07-26T20:22:38.227Z,28.00
2022-07-26T20:25:07.311Z,28.00
2022-07-26T20:27:35.134Z,27.90
2022-07-26T20:30:03.358Z,27.90
2022-07-26T20:32:31.178Z,27.90
2022-07-26T20:34:59.099Z,27.90
2022-07-26T20:37:26.917Z,27.90
2022-07-26T20:39:56.119Z,28.00
2022-07-26T20:42:24.457Z,28.00
2022-07-26T20:44:53.516Z,28.00
2022-07-26T20:47:22.349Z,28.00
2022-07-26T20:49:50.224Z,28.00
2022-07-26T20:52:18.120Z,28.00
2022-07-26T20:54:46.294Z,28.00
2022-07-26T20:57:15.736Z,28.10
2022-07-26T20:59:43.645Z,28.10
2022-07-26T21:02:11.493Z,28.10
2022-07-26T21:04:39.374Z,28.10
2022-07-26T21:07:07.239Z,28.10
2022-07-26T21:09:35.158Z,28.10
2022-07-26T21:12:02.938Z,28.10
2022-07-26T21:14:32.109Z,28.10
2022-07-26T21:16:59.996Z,28.20
2022-07-26T21:19:27.906Z,28.20
2022-07-26T21:21:56.941Z,28.20
2022-07-26T21:24:24.771Z,28.20
2022-07-26T21:26:55.055Z,28.20
2022-07-26T21:29:22.935Z,28.20
2022-07-26T21:31:52.165Z,28.20
2022-07-26T21:34:20.287Z,28.20
2022-07-26T21:36:48.229Z,28.20
2022-07-26T21:39:16.075Z,28.20
2022-07-26T21:41:43.973Z,28.20
2022-07-26T21:44:12.119Z,28.20
2022-07-26T21:46:40.037Z,28.20
2022-07-26T21:49:09.818Z,28.20
2022-07-26T21:51:37.969Z,28.20
2022-07-26T21:54:05.860Z,28.20
2022-07-26T21:56:33.852Z,28.20
2022-07-26T21:59:01.672Z,28.20
2022-07-26T22:01:29.639Z,28.20
2022-07-26T22:03:57.551Z,28.20
2022-07-26T22:06:26.798Z,28.20
2022-07-26T22:08:54.635Z,28.20
2022-07-26T22:11:22.664Z,28.20
2022-07-26T22:13:50.547Z,28.20
2022-07-26T22:16:18.424Z,28.20
2022-07-26T22:18:46.297Z,28.20
2022-07-26T22:21:14.372Z,28.20
2022-07-26T22:23:43.519Z,28.20
2022-07-26T22:26:11.326Z,28.20
2022-07-26T22:28:39.119Z,28.20
2022-07-26T22:31:07.015Z,28.20
2022-07-26T22:33:34.868Z,28.20
2022-07-26T22:36:02.685Z,28.20
2022-07-26T22:38:31.353Z,28.30
2022-07-26T22:41:00.753Z,28.30
2022-07-26T22:43:28.545Z,28.30
2022-07-26T22:45:56.406Z,28.30
2022-07-26T22:48:24.426Z,28.30
2022-07-26T22:50:52.376Z,28.30
2022-07-26T22:53:20.269Z,28.30
2022-07-26T22:55:48.068Z,28.30
2022-07-26T22:58:17.658Z,28.30
2022-07-26T23:00:45.583Z,28.30
2022-07-26T23:03:19.679Z,28.30
2022-07-26T23:05:49.517Z,28.30
2022-07-26T23:11:06.642Z,28.30
2022-07-26T23:13:35.832Z,28.30
2022-07-26T23:16:03.881Z,28.30
2022-07-26T23:18:32.590Z,28.30
2022-07-26T23:21:00.579Z,28.30
2022-07-26T23:23:29.320Z,28.30
2022-07-26T23:25:58.922Z,28.30
2022-07-26T23:28:37.235Z,28.30
2022-07-26T23:31:11.993Z,28.30
2022-07-26T23:33:52.702Z,28.30
2022-07-26T23:36:24.408Z,28.30
2022-07-26T23:38:52.310Z,28.30
2022-07-26T23:41:20.286Z,28.30
2022-07-26T23:43:48.279Z,28.30
2022-07-26T23:46:17.732Z,28.30
2022-07-26T23:48:45.776Z,28.30
2022-07-26T23:51:13.814Z,28.30
2022-07-26T23:53:41.617Z,28.30
2022-07-26T23:56:09.727Z,28.30
2022-07-26T23:58:37.533Z,28.30
